createdAt,value
2018-09-01T00:00:07.272Z,61.70
2018-09-01T00:00:39.045Z,61.70
2018-09-01T00:01:11.267Z,61.70
2018-09-01T00:01:43.234Z,61.60
2018-09-01T00:02:15.027Z,61.70
2018-09-01T00:02:46.828Z,61.80
2018-09-01T00:03:18.954Z,61.90
2018-09-01T00:03:50.881Z,61.70
2018-09-01T00:04:22.672Z,62.10
2018-09-01T00:04:54.594Z,62.10
2018-09-01T00:05:26.382Z,61.80
2018-09-01T00:05:58.290Z,61.80
2018-09-01T00:06:30.217Z,61.90
2018-09-01T00:07:02.042Z,61.70
2018-09-01T00:07:34.001Z,61.80
2018-09-01T00:08:06.040Z,61.80
2018-09-01T00:08:37.950Z,62.30
2018-09-01T00:09:10.033Z,61.60
2018-09-01T00:09:42.014Z,61.90
2018-09-01T00:10:13.848Z,61.80
2018-09-01T00:10:45.971Z,61.80
2018-09-01T00:11:18.137Z,62.50
2018-09-01T00:11:50.064Z,61.90
2018-09-01T00:12:21.900Z,61.90
2018-09-01T00:12:53.844Z,61.80
2018-09-01T00:13:25.759Z,61.80
2018-09-01T00:13:57.586Z,61.70
2018-09-01T00:14:29.388Z,62.50
2018-09-01T00:15:01.423Z,61.70
2018-09-01T00:15:33.225Z,61.70
2018-09-01T00:16:05.053Z,61.70
2018-09-01T00:16:36.921Z,61.70
2018-09-01T00:17:08.829Z,61.80
2018-09-01T00:17:40.725Z,61.90
2018-09-01T00:18:12.550Z,62.10
2018-09-01T00:18:44.479Z,61.60
2018-09-01T00:19:16.302Z,61.70
2018-09-01T00:19:48.300Z,61.70
2018-09-01T00:20:20.319Z,61.70
2018-09-01T00:20:52.200Z,62.40
2018-09-01T00:21:24.309Z,61.70
2018-09-01T00:21:56.181Z,61.70
2018-09-01T00:22:28.001Z,61.90
2018-09-01T00:22:59.889Z,61.70
2018-09-01T00:23:31.820Z,61.70
2018-09-01T00:24:03.620Z,61.70
2018-09-01T00:24:35.449Z,61.70
2018-09-01T00:25:07.240Z,61.60
2018-09-01T00:25:39.313Z,61.60
2018-09-01T00:26:11.390Z,61.60
2018-09-01T00:26:43.415Z,61.40
2018-09-01T00:27:15.271Z,61.60
2018-09-01T00:27:47.474Z,61.70
2018-09-01T00:28:19.311Z,61.60
2018-09-01T00:28:51.083Z,61.70
2018-09-01T00:29:22.950Z,61.70
2018-09-01T00:29:54.771Z,61.70
2018-09-01T00:30:26.785Z,61.60
2018-09-01T00:30:58.813Z,62.10
2018-09-01T00:31:30.660Z,61.60
2018-09-01T00:32:02.676Z,61.50
2018-09-01T00:32:34.561Z,61.60
2018-09-01T00:33:06.456Z,61.60
2018-09-01T00:33:38.312Z,61.40
2018-09-01T00:34:10.396Z,61.70
2018-09-01T00:34:42.220Z,61.50
2018-09-01T00:35:14.161Z,61.40
2018-09-01T00:35:46.080Z,61.60
2018-09-01T00:36:17.906Z,61.70
2018-09-01T00:36:49.744Z,61.60
2018-09-01T00:37:21.601Z,61.70
2018-09-01T00:37:53.771Z,61.70
2018-09-01T00:38:25.576Z,61.70
2018-09-01T00:38:57.548Z,61.60
2018-09-01T00:39:29.355Z,61.60
2018-09-01T00:40:01.296Z,61.60
2018-09-01T00:40:33.120Z,61.60
2018-09-01T00:41:04.913Z,61.70
2018-09-01T00:41:36.871Z,61.60
2018-09-01T00:42:08.823Z,61.60
2018-09-01T00:42:40.964Z,61.70
2018-09-01T00:43:12.763Z,61.70
2018-09-01T00:43:44.664Z,61.60
2018-09-01T00:44:16.466Z,61.60
2018-09-01T00:44:48.300Z,61.70
2018-09-01T00:45:20.090Z,61.70
2018-09-01T00:45:51.900Z,61.70
2018-09-01T00:46:23.983Z,61.70
2018-09-01T00:46:55.754Z,61.80
2018-09-01T00:47:27.551Z,61.80
2018-09-01T00:47:59.333Z,61.80
2018-09-01T00:48:31.314Z,61.70
2018-09-01T00:49:03.229Z,61.70
2018-09-01T00:49:35.030Z,61.80
2018-09-01T00:50:06.893Z,61.70
2018-09-01T00:50:38.743Z,61.70
2018-09-01T00:51:10.614Z,62.40
2018-09-01T00:51:42.403Z,61.90
2018-09-01T00:52:14.192Z,61.70
2018-09-01T00:52:46.425Z,61.70
2018-09-01T00:53:18.272Z,61.70
2018-09-01T00:53:50.236Z,61.70
2018-09-01T00:54:22.105Z,61.40
2018-09-01T00:54:54.122Z,61.60
2018-09-01T00:55:26.211Z,61.30
2018-09-01T00:55:58.259Z,61.50
2018-09-01T00:56:30.036Z,61.60
2018-09-01T00:57:01.861Z,61.50
2018-09-01T00:57:33.712Z,61.60
2018-09-01T00:58:05.554Z,61.60
2018-09-01T00:58:37.431Z,61.60
2018-09-01T00:59:09.494Z,61.50
2018-09-01T00:59:41.305Z,61.40
2018-09-01T01:00:13.073Z,61.50
2018-09-01T01:00:44.896Z,61.70
2018-09-01T01:01:16.701Z,61.60
2018-09-01T01:01:48.481Z,61.50
2018-09-01T01:02:20.295Z,61.70
2018-09-01T01:02:52.634Z,61.60
2018-09-01T01:03:24.502Z,61.70
2018-09-01T01:03:56.383Z,61.50
2018-09-01T01:04:28.221Z,61.60
2018-09-01T01:05:00.274Z,61.70
2018-09-01T01:05:32.333Z,61.60
2018-09-01T01:06:04.376Z,61.50
2018-09-01T01:06:36.262Z,61.50
2018-09-01T01:07:08.301Z,61.60
2018-09-01T01:07:40.353Z,61.60
2018-09-01T01:08:12.151Z,62.10
2018-09-01T01:08:44.075Z,61.60
2018-09-01T01:09:15.992Z,61.70
2018-09-01T01:09:47.964Z,61.60
2018-09-01T01:10:19.804Z,61.70
2018-09-01T01:10:51.683Z,61.60
2018-09-01T01:11:23.554Z,61.60
2018-09-01T01:11:55.395Z,61.60
2018-09-01T01:12:27.265Z,61.60
2018-09-01T01:12:59.112Z,61.60
2018-09-01T01:13:31.002Z,61.60
2018-09-01T01:14:02.882Z,61.50
2018-09-01T01:14:34.762Z,62.00
2018-09-01T01:15:06.598Z,61.60
2018-09-01T01:15:38.488Z,61.60
2018-09-01T01:16:10.333Z,61.30
2018-09-01T01:16:42.152Z,61.50
2018-09-01T01:17:13.972Z,61.40
2018-09-01T01:17:45.779Z,61.40
2018-09-01T01:18:17.627Z,61.50
2018-09-01T01:18:49.492Z,61.40
2018-09-01T01:19:21.295Z,61.30
2018-09-01T01:19:53.332Z,61.20
2018-09-01T01:20:25.196Z,61.30
2018-09-01T01:20:57.061Z,61.40
2018-09-01T01:21:29.032Z,61.50
2018-09-01T01:22:01.133Z,61.60
2018-09-01T01:22:32.958Z,61.40
2018-09-01T01:23:04.723Z,61.40
2018-09-01T01:23:36.621Z,61.50
2018-09-01T01:24:08.563Z,61.40
2018-09-01T01:24:40.353Z,61.40
2018-09-01T01:25:12.300Z,61.40
2018-09-01T01:25:44.096Z,61.50
2018-09-01T01:26:16.200Z,61.30
2018-09-01T01:26:48.018Z,61.40
2018-09-01T01:27:19.853Z,61.40
2018-09-01T01:27:51.693Z,61.40
2018-09-01T01:28:23.890Z,61.40
2018-09-01T01:28:55.859Z,61.40
2018-09-01T01:29:27.689Z,61.40
2018-09-01T01:29:59.483Z,61.40
2018-09-01T01:30:31.339Z,61.40
2018-09-01T01:31:03.224Z,61.40
2018-09-01T01:31:35.144Z,61.30
2018-09-01T01:32:07.241Z,61.40
2018-09-01T01:32:39.312Z,61.50
2018-09-01T01:33:11.343Z,61.40
2018-09-01T01:33:43.130Z,61.40
2018-09-01T01:34:14.937Z,61.40
2018-09-01T01:34:46.803Z,61.40
2018-09-01T01:35:18.864Z,62.10
2018-09-01T01:35:50.699Z,61.40
2018-09-01T01:36:22.532Z,61.60
2018-09-01T01:36:54.324Z,61.30
2018-09-01T01:37:26.180Z,61.30
2018-09-01T01:37:58.062Z,61.40
2018-09-01T01:38:30.125Z,61.40
2018-09-01T01:39:01.954Z,61.10
2018-09-01T01:39:33.844Z,61.20
2018-09-01T01:40:05.636Z,61.30
2018-09-01T01:40:37.706Z,61.30
2018-09-01T01:41:09.623Z,61.30
2018-09-01T01:41:42.156Z,61.40
2018-09-01T01:42:14.123Z,61.30
2018-09-01T01:42:45.998Z,61.70
2018-09-01T01:43:17.956Z,61.30
2018-09-01T01:43:50.105Z,61.40
2018-09-01T01:44:22.062Z,61.40
2018-09-01T01:44:53.904Z,61.40
2018-09-01T01:45:25.734Z,61.50
2018-09-01T01:45:57.614Z,61.40
2018-09-01T01:46:29.454Z,61.30
2018-09-01T01:47:01.254Z,61.30
2018-09-01T01:47:33.125Z,61.20
2018-09-01T01:48:04.947Z,61.30
2018-09-01T01:48:36.814Z,61.40
2018-09-01T01:49:08.605Z,61.40
2018-09-01T01:49:40.684Z,61.40
2018-09-01T01:50:12.534Z,61.30
2018-09-01T01:50:44.386Z,61.30
2018-09-01T01:51:16.160Z,61.40
2018-09-01T01:51:48.045Z,61.40
2018-09-01T01:52:19.903Z,61.40
2018-09-01T01:52:51.817Z,61.40
2018-09-01T01:53:23.698Z,61.40
2018-09-01T01:53:55.513Z,61.40
2018-09-01T01:54:27.358Z,61.40
2018-09-01T01:54:59.315Z,61.50
2018-09-01T01:55:31.096Z,61.30
2018-09-01T01:56:02.977Z,61.30
2018-09-01T01:56:35.063Z,61.90
2018-09-01T01:57:06.840Z,61.30
2018-09-01T01:57:38.637Z,61.30
2018-09-01T01:58:10.434Z,61.20
2018-09-01T01:58:42.297Z,61.20
2018-09-01T01:59:14.379Z,61.20
2018-09-01T01:59:46.188Z,61.30
2018-09-01T02:00:17.995Z,61.20
2018-09-01T02:00:50.024Z,60.60
2018-09-01T02:01:21.797Z,61.20
2018-09-01T02:01:53.619Z,61.10
2018-09-01T02:02:25.768Z,61.20
2018-09-01T02:02:57.748Z,61.20
2018-09-01T02:03:29.795Z,61.30
2018-09-01T02:04:01.685Z,61.30
2018-09-01T02:04:33.535Z,61.60
2018-09-01T02:05:05.406Z,61.30
2018-09-01T02:05:37.245Z,61.20
2018-09-01T02:06:09.095Z,61.20
2018-09-01T02:06:41.056Z,61.10
2018-09-01T02:07:12.925Z,61.10
2018-09-01T02:07:44.711Z,61.20
2018-09-01T02:08:16.544Z,61.20
2018-09-01T02:08:48.374Z,61.20
2018-09-01T02:09:20.246Z,61.20
2018-09-01T02:09:52.092Z,61.10
2018-09-01T02:10:24.009Z,61.20
2018-09-01T02:10:56.044Z,61.80
2018-09-01T02:11:27.855Z,61.10
2018-09-01T02:11:59.695Z,61.10
2018-09-01T02:12:31.584Z,61.30
2018-09-01T02:13:03.407Z,61.10
2018-09-01T02:13:35.246Z,61.00
2018-09-01T02:14:07.044Z,61.10
2018-09-01T02:14:38.888Z,60.90
2018-09-01T02:15:10.739Z,60.90
2018-09-01T02:15:42.655Z,61.10
2018-09-01T02:16:14.527Z,61.60
2018-09-01T02:16:46.454Z,61.50
2018-09-01T02:17:18.311Z,61.00
2018-09-01T02:17:50.316Z,61.00
2018-09-01T02:18:22.395Z,61.00
2018-09-01T02:18:54.226Z,61.00
2018-09-01T02:19:26.057Z,61.00
2018-09-01T02:19:58.015Z,61.00
2018-09-01T02:20:29.840Z,60.90
2018-09-01T02:21:01.979Z,60.90
2018-09-01T02:21:33.937Z,60.80
2018-09-01T02:22:05.733Z,60.90
2018-09-01T02:22:37.595Z,60.90
2018-09-01T02:23:09.562Z,60.90
2018-09-01T02:23:41.467Z,60.90
2018-09-01T02:24:13.623Z,60.80
2018-09-01T02:24:45.496Z,61.00
2018-09-01T02:25:17.480Z,61.00
2018-09-01T02:25:49.416Z,61.00
2018-09-01T02:26:21.258Z,61.00
2018-09-01T02:26:53.115Z,61.00
2018-09-01T02:27:25.017Z,61.00
2018-09-01T02:27:56.974Z,60.90
2018-09-01T02:28:28.924Z,60.90
2018-09-01T02:29:01.003Z,60.90
2018-09-01T02:29:32.817Z,60.80
2018-09-01T02:30:04.602Z,60.80
2018-09-01T02:30:36.604Z,60.70
2018-09-01T02:31:08.545Z,60.80
2018-09-01T02:31:40.516Z,61.60
2018-09-01T02:32:12.338Z,60.90
2018-09-01T02:32:44.168Z,60.90
2018-09-01T02:33:16.045Z,60.90
2018-09-01T02:33:47.857Z,60.90
2018-09-01T02:34:19.693Z,60.90
2018-09-01T02:34:51.567Z,60.90
2018-09-01T02:35:23.403Z,60.90
2018-09-01T02:35:55.260Z,60.90
2018-09-01T02:36:27.306Z,61.60
2018-09-01T02:36:59.181Z,60.90
2018-09-01T02:37:31.018Z,60.90
2018-09-01T02:38:02.805Z,60.80
2018-09-01T02:38:34.642Z,60.90
2018-09-01T02:39:06.415Z,60.80
2018-09-01T02:39:38.415Z,60.90
2018-09-01T02:40:10.267Z,60.90
2018-09-01T02:40:42.167Z,60.90
2018-09-01T02:41:14.042Z,60.90
2018-09-01T02:41:45.894Z,61.00
2018-09-01T02:42:17.835Z,60.90
2018-09-01T02:42:49.611Z,61.00
2018-09-01T02:43:21.479Z,61.00
2018-09-01T02:43:53.305Z,60.90
2018-09-01T02:44:25.241Z,60.90
2018-09-01T02:44:57.198Z,60.90
2018-09-01T02:45:29.056Z,60.90
2018-09-01T02:46:00.928Z,60.90
2018-09-01T02:46:32.860Z,60.90
2018-09-01T02:47:04.892Z,61.10
2018-09-01T02:47:37.046Z,61.00
2018-09-01T02:48:08.942Z,61.10
2018-09-01T02:48:41.167Z,61.00
2018-09-01T02:49:12.956Z,61.00
2018-09-01T02:49:44.908Z,61.00
2018-09-01T02:50:16.729Z,61.00
2018-09-01T02:50:48.582Z,61.00
2018-09-01T02:51:20.607Z,61.00
2018-09-01T02:51:52.653Z,60.90
2018-09-01T02:52:24.516Z,61.10
2018-09-01T02:52:56.385Z,61.10
2018-09-01T02:53:28.178Z,60.90
2018-09-01T02:53:59.959Z,60.90
2018-09-01T02:54:31.765Z,61.00
2018-09-01T02:55:03.820Z,60.90
2018-09-01T02:55:35.703Z,60.80
2018-09-01T02:56:07.806Z,60.90
2018-09-01T02:56:39.737Z,60.80
2018-09-01T02:57:11.643Z,60.80
2018-09-01T02:57:43.446Z,60.70
2018-09-01T02:58:15.275Z,60.70
2018-09-01T02:58:47.133Z,60.80
2018-09-01T02:59:19.090Z,60.70
2018-09-01T02:59:51.059Z,60.80
2018-09-01T03:00:22.858Z,60.70
2018-09-01T03:00:54.679Z,60.80
2018-09-01T03:01:26.495Z,60.90
2018-09-01T03:01:58.339Z,60.80
2018-09-01T03:02:30.288Z,60.80
2018-09-01T03:03:02.071Z,60.70
2018-09-01T03:03:33.937Z,60.80
2018-09-01T03:04:05.780Z,60.90
2018-09-01T03:04:37.796Z,60.80
2018-09-01T03:05:09.686Z,60.90
2018-09-01T03:05:41.490Z,60.70
2018-09-01T03:06:13.256Z,60.80
2018-09-01T03:06:45.087Z,60.70
2018-09-01T03:07:17.077Z,60.80
2018-09-01T03:07:48.856Z,60.70
2018-09-01T03:08:20.716Z,61.30
2018-09-01T03:08:52.606Z,60.80
2018-09-01T03:09:24.699Z,60.90
2018-09-01T03:09:57.018Z,60.80
2018-09-01T03:10:28.829Z,60.90
2018-09-01T03:11:00.845Z,60.90
2018-09-01T03:11:32.716Z,60.90
2018-09-01T03:12:04.682Z,60.90
2018-09-01T03:12:36.465Z,60.90
2018-09-01T03:13:08.317Z,60.90
2018-09-01T03:13:40.195Z,61.50
2018-09-01T03:14:12.081Z,60.90
2018-09-01T03:14:44.575Z,60.90
2018-09-01T03:15:16.526Z,60.80
2018-09-01T03:15:48.322Z,60.90
2018-09-01T03:16:20.269Z,60.90
2018-09-01T03:16:52.170Z,60.70
2018-09-01T03:17:23.962Z,60.90
2018-09-01T03:17:55.816Z,60.90
2018-09-01T03:18:27.676Z,60.70
2018-09-01T03:18:59.496Z,60.80
2018-09-01T03:19:31.346Z,60.70
2018-09-01T03:20:03.141Z,60.80
2018-09-01T03:20:35.157Z,60.70
2018-09-01T03:21:07.146Z,60.80
2018-09-01T03:21:38.967Z,61.40
2018-09-01T03:22:10.947Z,60.70
2018-09-01T03:22:42.984Z,60.60
2018-09-01T03:23:14.868Z,61.10
2018-09-01T03:23:46.706Z,60.80
2018-09-01T03:24:18.538Z,60.80
2018-09-01T03:24:50.806Z,60.90
2018-09-01T03:25:22.908Z,60.80
2018-09-01T03:25:54.735Z,60.80
2018-09-01T03:26:26.646Z,60.70
2018-09-01T03:26:58.544Z,60.70
2018-09-01T03:27:30.755Z,60.60
2018-09-01T03:28:02.618Z,60.70
2018-09-01T03:28:34.467Z,60.60
2018-09-01T03:29:06.327Z,60.70
2018-09-01T03:29:38.117Z,60.70
2018-09-01T03:30:09.975Z,60.60
2018-09-01T03:30:41.828Z,60.60
2018-09-01T03:31:13.694Z,60.70
2018-09-01T03:31:45.611Z,60.70
2018-09-01T03:32:17.530Z,60.60
2018-09-01T03:32:49.582Z,60.60
2018-09-01T03:33:21.430Z,60.60
2018-09-01T03:33:53.286Z,60.00
2018-09-01T03:34:25.136Z,60.40
2018-09-01T03:34:57.476Z,60.40
2018-09-01T03:35:29.345Z,60.40
2018-09-01T03:36:01.125Z,60.00
2018-09-01T03:36:32.967Z,60.50
2018-09-01T03:37:04.769Z,60.60
2018-09-01T03:37:36.860Z,60.60
2018-09-01T03:38:08.757Z,60.50
2018-09-01T03:38:40.740Z,61.40
2018-09-01T03:39:12.538Z,60.60
2018-09-01T03:39:44.430Z,60.60
2018-09-01T03:40:16.307Z,60.70
2018-09-01T03:40:48.134Z,60.70
2018-09-01T03:41:19.936Z,60.60
2018-09-01T03:41:51.776Z,60.60
2018-09-01T03:42:23.583Z,60.70
2018-09-01T03:42:55.366Z,60.60
2018-09-01T03:43:27.206Z,60.50
2018-09-01T03:43:59.011Z,60.60
2018-09-01T03:44:30.947Z,60.50
2018-09-01T03:45:02.997Z,60.60
2018-09-01T03:45:34.813Z,60.50
2018-09-01T03:46:06.616Z,60.60
2018-09-01T03:46:38.431Z,60.50
2018-09-01T03:47:10.536Z,60.60
2018-09-01T03:47:42.424Z,60.60
2018-09-01T03:48:14.248Z,60.60
2018-09-01T03:48:46.066Z,60.60
2018-09-01T03:49:17.875Z,60.40
2018-09-01T03:49:49.796Z,60.50
2018-09-01T03:50:21.717Z,60.60
2018-09-01T03:50:53.530Z,60.50
2018-09-01T03:51:25.521Z,60.40
2018-09-01T03:51:57.387Z,61.10
2018-09-01T03:52:29.259Z,60.50
2018-09-01T03:53:01.163Z,60.40
2018-09-01T03:53:33.022Z,60.50
2018-09-01T03:54:04.808Z,60.40
2018-09-01T03:54:36.611Z,60.40
2018-09-01T03:55:08.626Z,60.40
2018-09-01T03:55:40.656Z,60.30
2018-09-01T03:56:12.519Z,60.30
2018-09-01T03:56:44.369Z,60.40
2018-09-01T03:57:16.326Z,60.30
2018-09-01T03:57:48.377Z,60.40
2018-09-01T03:58:20.230Z,60.20
2018-09-01T03:58:52.613Z,60.40
2018-09-01T03:59:24.446Z,60.40
2018-09-01T03:59:56.307Z,60.40
2018-09-01T04:00:28.207Z,60.30
2018-09-01T04:01:00.084Z,60.40
2018-09-01T04:01:32.047Z,60.40
2018-09-01T04:02:03.855Z,60.40
2018-09-01T04:02:35.708Z,60.40
2018-09-01T04:03:07.589Z,60.50
2018-09-01T04:03:39.494Z,61.10
2018-09-01T04:04:11.447Z,60.40
2018-09-01T04:04:43.327Z,60.40
2018-09-01T04:05:15.241Z,60.40
2018-09-01T04:05:47.231Z,60.40
2018-09-01T04:06:19.322Z,60.30
2018-09-01T04:06:51.331Z,61.00
2018-09-01T04:07:23.141Z,60.20
2018-09-01T04:07:55.006Z,60.10
2018-09-01T04:08:26.855Z,60.30
2018-09-01T04:08:58.837Z,60.20
2018-09-01T04:09:30.755Z,60.20
2018-09-01T04:10:02.951Z,60.00
2018-09-01T04:10:34.728Z,60.20
2018-09-01T04:11:06.660Z,60.10
2018-09-01T04:11:38.510Z,60.10
2018-09-01T04:12:10.381Z,60.20
2018-09-01T04:12:42.199Z,60.20
2018-09-01T04:13:14.118Z,60.20
2018-09-01T04:13:45.967Z,60.20
2018-09-01T04:14:17.870Z,60.20
2018-09-01T04:14:49.700Z,60.20
2018-09-01T04:15:21.574Z,60.20
2018-09-01T04:15:53.737Z,60.10
2018-09-01T04:16:25.556Z,60.10
2018-09-01T04:16:57.411Z,60.10
2018-09-01T04:17:29.238Z,60.20
2018-09-01T04:18:01.113Z,60.30
2018-09-01T04:18:32.921Z,60.20
2018-09-01T04:19:04.715Z,60.20
2018-09-01T04:19:36.512Z,60.20
2018-09-01T04:20:08.526Z,60.30
2018-09-01T04:20:40.377Z,60.30
2018-09-01T04:21:12.313Z,60.30
2018-09-01T04:21:44.165Z,60.20
2018-09-01T04:22:16.320Z,60.20
2018-09-01T04:22:48.243Z,60.20
2018-09-01T04:23:20.031Z,60.20
2018-09-01T04:23:51.969Z,60.30
2018-09-01T04:24:23.842Z,60.30
2018-09-01T04:24:55.627Z,60.20
2018-09-01T04:25:27.570Z,60.20
2018-09-01T04:25:59.428Z,60.90
2018-09-01T04:26:31.227Z,60.20
2018-09-01T04:27:03.089Z,60.20
2018-09-01T04:27:34.911Z,60.20
2018-09-01T04:28:06.788Z,60.20
2018-09-01T04:28:38.699Z,60.20
2018-09-01T04:29:10.596Z,60.20
2018-09-01T04:29:42.558Z,60.20
2018-09-01T04:30:14.389Z,60.20
2018-09-01T04:30:46.479Z,60.30
2018-09-01T04:31:18.335Z,60.40
2018-09-01T04:31:50.191Z,60.30
2018-09-01T04:32:22.248Z,60.10
2018-09-01T04:32:54.109Z,60.20
2018-09-01T04:33:26.024Z,60.40
2018-09-01T04:33:57.868Z,60.30
2018-09-01T04:34:29.739Z,60.20
2018-09-01T04:35:01.609Z,60.30
2018-09-01T04:35:33.473Z,60.30
2018-09-01T04:36:05.265Z,60.20
2018-09-01T04:36:37.136Z,60.20
2018-09-01T04:37:08.941Z,60.20
2018-09-01T04:37:41.005Z,60.20
2018-09-01T04:38:12.819Z,60.30
2018-09-01T04:38:44.659Z,60.20
2018-09-01T04:39:16.919Z,60.30
2018-09-01T04:39:48.866Z,60.30
2018-09-01T04:40:20.760Z,60.30
2018-09-01T04:40:52.579Z,60.40
2018-09-01T04:41:24.599Z,60.30
2018-09-01T04:41:56.458Z,60.30
2018-09-01T04:42:28.255Z,61.00
2018-09-01T04:43:00.440Z,60.30
2018-09-01T04:43:32.252Z,60.20
2018-09-01T04:44:04.229Z,60.80
2018-09-01T04:44:36.058Z,60.10
2018-09-01T04:45:07.921Z,60.10
2018-09-01T04:45:39.782Z,60.00
2018-09-01T04:46:11.681Z,60.00
2018-09-01T04:46:43.459Z,60.00
2018-09-01T04:47:15.470Z,60.00
2018-09-01T04:47:47.391Z,60.00
2018-09-01T04:48:19.174Z,60.00
2018-09-01T04:48:51.039Z,59.90
2018-09-01T04:49:22.829Z,60.00
2018-09-01T04:49:54.770Z,60.00
2018-09-01T04:50:26.678Z,60.00
2018-09-01T04:50:58.577Z,60.00
2018-09-01T04:51:30.390Z,60.00
2018-09-01T04:52:02.471Z,60.00
2018-09-01T04:52:34.371Z,59.90
2018-09-01T04:53:06.391Z,60.00
2018-09-01T04:53:38.240Z,60.00
2018-09-01T04:54:10.192Z,59.90
2018-09-01T04:54:42.096Z,59.90
2018-09-01T04:55:13.867Z,59.90
2018-09-01T04:55:45.690Z,59.80
2018-09-01T04:56:17.719Z,59.90
2018-09-01T04:56:49.495Z,59.90
2018-09-01T04:57:21.491Z,59.80
2018-09-01T04:57:53.580Z,60.00
2018-09-01T04:58:25.363Z,59.90
2018-09-01T04:58:57.239Z,59.90
2018-09-01T04:59:29.078Z,59.90
2018-09-01T05:00:39.059Z,59.80
2018-09-01T05:01:11.098Z,59.90
2018-09-01T05:01:42.950Z,59.90
2018-09-01T05:02:14.752Z,59.90
2018-09-01T05:02:46.554Z,59.90
2018-09-01T05:03:18.388Z,59.90
2018-09-01T05:03:50.367Z,59.90
2018-09-01T05:04:22.417Z,59.90
2018-09-01T05:04:54.539Z,59.90
2018-09-01T05:05:26.518Z,59.90
2018-09-01T05:05:58.335Z,59.90
2018-09-01T05:06:30.210Z,60.60
2018-09-01T05:07:02.013Z,59.90
2018-09-01T05:07:33.947Z,59.80
2018-09-01T05:08:05.821Z,59.80
2018-09-01T05:08:37.707Z,59.80
2018-09-01T05:09:09.526Z,59.80
2018-09-01T05:09:41.317Z,59.40
2018-09-01T05:10:13.117Z,59.90
2018-09-01T05:10:44.909Z,59.90
2018-09-01T05:11:16.981Z,59.90
2018-09-01T05:11:49.116Z,59.90
2018-09-01T05:12:21.188Z,59.90
2018-09-01T05:12:53.448Z,60.60
2018-09-01T05:13:25.397Z,59.80
2018-09-01T05:13:57.456Z,59.90
2018-09-01T05:14:29.306Z,59.80
2018-09-01T05:15:01.195Z,59.80
2018-09-01T05:15:32.970Z,59.90
2018-09-01T05:16:04.821Z,59.90
2018-09-01T05:16:36.581Z,59.90
2018-09-01T05:17:08.416Z,60.00
2018-09-01T05:17:40.227Z,60.00
2018-09-01T05:18:12.066Z,60.00
2018-09-01T05:18:43.967Z,59.90
2018-09-01T05:19:15.845Z,59.90
2018-09-01T05:19:47.820Z,59.90
2018-09-01T05:20:19.745Z,60.00
2018-09-01T05:20:51.631Z,59.90
2018-09-01T05:21:23.687Z,59.90
2018-09-01T05:21:55.487Z,59.90
2018-09-01T05:22:27.359Z,59.80
2018-09-01T05:22:59.185Z,59.90
2018-09-01T05:23:30.996Z,59.40
2018-09-01T05:24:02.854Z,59.70
2018-09-01T05:24:34.813Z,59.70
2018-09-01T05:25:06.675Z,59.70
2018-09-01T05:25:38.550Z,59.70
2018-09-01T05:26:10.395Z,59.70
2018-09-01T05:26:42.207Z,59.80
2018-09-01T05:27:14.035Z,59.50
2018-09-01T05:27:45.949Z,59.80
2018-09-01T05:28:17.900Z,59.80
2018-09-01T05:28:49.697Z,59.70
2018-09-01T05:29:21.540Z,59.70
2018-09-01T05:29:53.378Z,59.70
2018-09-01T05:30:25.210Z,59.60
2018-09-01T05:30:57.260Z,59.70
2018-09-01T05:31:29.205Z,59.70
2018-09-01T05:32:01.119Z,59.70
2018-09-01T05:32:32.960Z,59.70
2018-09-01T05:33:05.000Z,59.70
2018-09-01T05:33:36.814Z,59.70
2018-09-01T05:34:08.662Z,59.70
2018-09-01T05:34:40.746Z,59.70
2018-09-01T05:35:12.642Z,59.70
2018-09-01T05:35:44.464Z,59.60
2018-09-01T05:36:16.314Z,59.70
2018-09-01T05:36:48.145Z,59.70
2018-09-01T05:37:20.053Z,59.60
2018-09-01T05:37:51.900Z,59.60
2018-09-01T05:38:23.748Z,59.60
2018-09-01T05:38:55.796Z,59.60
2018-09-01T05:39:27.587Z,59.50
2018-09-01T05:39:59.515Z,59.50
2018-09-01T05:40:31.324Z,60.10
2018-09-01T05:41:03.132Z,59.50
2018-09-01T05:41:34.985Z,59.50
2018-09-01T05:42:06.847Z,59.60
2018-09-01T05:42:38.702Z,59.60
2018-09-01T05:43:10.540Z,59.50
2018-09-01T05:43:42.397Z,59.50
2018-09-01T05:44:14.595Z,59.60
2018-09-01T05:44:46.411Z,59.60
2018-09-01T05:45:18.215Z,59.70
2018-09-01T05:45:50.014Z,59.60
2018-09-01T05:46:22.013Z,59.50
2018-09-01T05:46:53.939Z,60.20
2018-09-01T05:47:25.763Z,59.60
2018-09-01T05:47:57.764Z,59.60
2018-09-01T05:48:29.819Z,59.50
2018-09-01T05:49:01.764Z,59.50
2018-09-01T05:49:33.624Z,59.50
2018-09-01T05:50:05.657Z,59.50
2018-09-01T05:50:37.713Z,59.40
2018-09-01T05:51:09.783Z,59.40
2018-09-01T05:51:41.632Z,59.40
2018-09-01T05:52:13.478Z,59.40
2018-09-01T05:52:45.541Z,59.40
2018-09-01T05:53:17.362Z,59.50
2018-09-01T05:53:49.221Z,59.40
2018-09-01T05:54:21.072Z,59.40
2018-09-01T05:54:52.934Z,59.50
2018-09-01T05:55:25.001Z,59.40
2018-09-01T05:55:56.912Z,59.40
2018-09-01T05:56:28.887Z,59.40
2018-09-01T05:57:00.820Z,59.40
2018-09-01T05:57:32.643Z,59.50
2018-09-01T05:58:04.459Z,59.50
2018-09-01T05:58:36.260Z,59.40
2018-09-01T05:59:08.081Z,59.40
2018-09-01T05:59:39.873Z,59.40
2018-09-01T06:00:11.716Z,59.50
2018-09-01T06:00:43.515Z,59.40
2018-09-01T06:01:15.467Z,59.40
2018-09-01T06:01:47.549Z,59.40
2018-09-01T06:02:19.352Z,59.40
2018-09-01T06:02:51.490Z,59.30
2018-09-01T06:03:23.332Z,59.30
2018-09-01T06:03:55.155Z,59.30
2018-09-01T06:04:27.102Z,59.30
2018-09-01T06:04:58.935Z,59.30
2018-09-01T06:05:30.987Z,59.20
2018-09-01T06:06:02.978Z,59.20
2018-09-01T06:06:34.987Z,59.20
2018-09-01T06:07:06.847Z,59.80
2018-09-01T06:07:38.917Z,59.20
2018-09-01T06:08:10.756Z,59.10
2018-09-01T06:08:42.589Z,59.20
2018-09-01T06:09:14.551Z,59.10
2018-09-01T06:09:46.422Z,59.20
2018-09-01T06:10:18.321Z,59.20
2018-09-01T06:10:50.182Z,59.10
2018-09-01T06:11:21.974Z,59.20
2018-09-01T06:11:54.069Z,59.10
2018-09-01T06:12:26.000Z,59.20
2018-09-01T06:12:57.797Z,59.20
2018-09-01T06:13:29.811Z,59.10
2018-09-01T06:14:01.612Z,59.10
2018-09-01T06:14:33.491Z,59.10
2018-09-01T06:15:05.356Z,59.20
2018-09-01T06:15:37.221Z,59.10
2018-09-01T06:16:09.080Z,59.10
2018-09-01T06:16:40.895Z,59.20
2018-09-01T06:17:12.827Z,59.20
2018-09-01T06:17:44.832Z,59.20
2018-09-01T06:18:16.738Z,59.20
2018-09-01T06:18:48.541Z,59.20
2018-09-01T06:19:20.460Z,59.20
2018-09-01T06:19:52.442Z,59.10
2018-09-01T06:20:24.282Z,59.20
2018-09-01T06:20:56.240Z,59.20
2018-09-01T06:21:28.111Z,59.20
2018-09-01T06:21:59.960Z,59.20
2018-09-01T06:22:31.829Z,59.20
2018-09-01T06:23:03.628Z,59.20
2018-09-01T06:23:35.472Z,59.00
2018-09-01T06:24:07.293Z,59.10
2018-09-01T06:24:39.270Z,59.10
2018-09-01T06:25:11.223Z,59.10
2018-09-01T06:25:43.108Z,59.10
2018-09-01T06:26:15.063Z,59.40
2018-09-01T06:26:46.852Z,59.20
2018-09-01T06:27:18.823Z,59.10
2018-09-01T06:27:50.719Z,59.20
2018-09-01T06:28:22.703Z,59.10
2018-09-01T06:28:54.580Z,59.20
2018-09-01T06:29:26.525Z,59.00
2018-09-01T06:29:58.368Z,59.20
2018-09-01T06:30:30.340Z,59.00
2018-09-01T06:31:02.134Z,59.20
2018-09-01T06:31:33.968Z,59.00
2018-09-01T06:32:05.759Z,59.00
2018-09-01T06:32:37.857Z,59.10
2018-09-01T06:33:09.648Z,59.20
2018-09-01T06:33:41.529Z,59.10
2018-09-01T06:34:13.332Z,59.10
2018-09-01T06:34:45.138Z,59.00
2018-09-01T06:35:16.950Z,59.10
2018-09-01T06:35:48.748Z,59.00
2018-09-01T06:36:20.679Z,59.00
2018-09-01T06:36:52.474Z,59.00
2018-09-01T06:37:24.305Z,58.90
2018-09-01T06:37:56.426Z,59.00
2018-09-01T06:38:28.386Z,59.00
2018-09-01T06:39:00.196Z,59.00
2018-09-01T06:39:31.999Z,59.00
2018-09-01T06:40:03.869Z,59.00
2018-09-01T06:40:35.747Z,59.70
2018-09-01T06:41:07.808Z,59.00
2018-09-01T06:41:39.807Z,59.00
2018-09-01T06:42:12.088Z,59.10
2018-09-01T06:42:44.019Z,59.10
2018-09-01T06:43:16.057Z,59.10
2018-09-01T06:43:47.903Z,59.10
2018-09-01T06:44:19.758Z,59.00
2018-09-01T06:44:51.599Z,59.00
2018-09-01T06:45:23.448Z,59.00
2018-09-01T06:45:55.256Z,58.50
2018-09-01T06:46:27.046Z,59.10
2018-09-01T06:46:59.069Z,59.00
2018-09-01T06:47:31.037Z,59.00
2018-09-01T06:48:02.892Z,59.00
2018-09-01T06:48:34.719Z,59.00
2018-09-01T06:49:06.868Z,59.10
2018-09-01T06:49:38.709Z,59.10
2018-09-01T06:50:10.528Z,59.10
2018-09-01T06:50:42.356Z,59.10
2018-09-01T06:51:14.169Z,59.10